createdAt,value
2022-09-17T00:02:26.573Z,100939.13
2022-09-17T00:06:38.047Z,100935.88
2022-09-17T00:10:49.475Z,100933.75
2022-09-17T00:15:00.924Z,100933.88
2022-09-17T00:19:21.405Z,100936.22
2022-09-17T00:23:32.903Z,100941.47
2022-09-17T00:27:46.109Z,100945.69
2022-09-17T00:31:57.522Z,100954.81
2022-09-17T00:36:08.993Z,100953.41
2022-09-17T00:40:21.454Z,100937.25
2022-09-17T00:44:50.796Z,100950.72
2022-09-17T00:49:07.425Z,100947.41
2022-09-17T00:53:22.236Z,100963.34
2022-09-17T00:57:34.113Z,100951.75
2022-09-17T01:01:46.459Z,100982.09
2022-09-17T01:06:28.264Z,100964.63
2022-09-17T01:11:08.525Z,100971.06
2022-09-17T01:15:47.758Z,100970.34
2022-09-17T01:20:25.574Z,100989.56
2022-09-17T01:25:04.856Z,100999.66
2022-09-17T01:29:31.341Z,100994.88
2022-09-17T01:33:58.407Z,100990.31
2022-09-17T01:38:13.157Z,100987.09
2022-09-17T01:42:34.632Z,100990.13
2022-09-17T01:46:52.573Z,100982.34
2022-09-17T01:51:14.768Z,100998.94
2022-09-17T01:55:32.423Z,100999.06
2022-09-17T02:00:12.821Z,101000.63
2022-09-17T02:04:31.428Z,100999.19
2022-09-17T02:08:48.734Z,101010.63
2022-09-17T02:13:05.907Z,100998.88
2022-09-17T02:17:43.926Z,101007.72
2022-09-17T02:22:01.353Z,101007.13
2022-09-17T02:26:18.143Z,101003.44
2022-09-17T02:30:32.025Z,100994.25
2022-09-17T02:34:43.493Z,100995.97
2022-09-17T02:39:00.394Z,100996.41
2022-09-17T02:43:25.027Z,101004.56
2022-09-17T02:47:52.881Z,101001.09
2022-09-17T02:52:22.755Z,101009.25
2022-09-17T02:56:46.486Z,101007.03
2022-09-17T03:01:04.815Z,101008.28
2022-09-17T03:05:20.239Z,101015.75
2022-09-17T03:09:31.688Z,101014.56
2022-09-17T03:13:43.197Z,101012.53
2022-09-17T03:17:54.598Z,101008.22
2022-09-17T03:22:06.071Z,101001.28
2022-09-17T03:26:17.485Z,101000.31
2022-09-17T03:30:28.920Z,100994.63
2022-09-17T03:34:40.332Z,101002.72
2022-09-17T03:38:58.865Z,101004.41
2022-09-17T03:43:11.047Z,101007.13
2022-09-17T03:47:22.642Z,100996.66
2022-09-17T03:51:34.117Z,100996.44
2022-09-17T03:55:45.580Z,100989.44
2022-09-17T03:59:57.002Z,101002.25
2022-09-17T04:04:08.901Z,101007.00
2022-09-17T04:08:21.246Z,101004.75
2022-09-17T04:12:32.650Z,101007.44
2022-09-17T04:16:44.088Z,101015.50
2022-09-17T04:20:55.572Z,101019.69
2022-09-17T04:25:07.401Z,101020.88
2022-09-17T04:29:18.820Z,101013.50
2022-09-17T04:33:30.246Z,101016.38
2022-09-17T04:37:41.664Z,101027.72
2022-09-17T04:41:53.086Z,101026.75
2022-09-17T04:46:04.680Z,101024.06
2022-09-17T04:50:17.841Z,101024.09
2022-09-17T04:54:29.314Z,101021.66
2022-09-17T04:58:40.813Z,101022.69
2022-09-17T05:02:54.245Z,101026.19
2022-09-17T05:07:05.862Z,101016.69
2022-09-17T05:11:17.336Z,101026.19
2022-09-17T05:15:28.788Z,101032.13
2022-09-17T05:19:40.205Z,101027.81
2022-09-17T05:23:51.728Z,101031.56
2022-09-17T05:28:03.155Z,101031.97
2022-09-17T05:32:14.573Z,101038.38
2022-09-17T05:36:25.995Z,101050.13
2022-09-17T05:40:40.339Z,101052.81
2022-09-17T05:44:51.864Z,101045.81
2022-09-17T05:49:04.945Z,101056.13
2022-09-17T05:53:16.535Z,101055.88
2022-09-17T05:57:30.385Z,101077.69
2022-09-17T06:01:42.439Z,101066.34
2022-09-17T06:05:56.438Z,101078.72
2022-09-17T06:10:09.248Z,101080.16
2022-09-17T06:14:20.669Z,101097.28
2022-09-17T06:18:32.289Z,101101.66
2022-09-17T06:22:43.735Z,101097.97
2022-09-17T06:26:55.167Z,101101.34
2022-09-17T06:31:08.309Z,101100.59
2022-09-17T06:35:20.536Z,101105.00
2022-09-17T06:39:32.109Z,101101.53
2022-09-17T06:43:43.838Z,101100.09
2022-09-17T06:47:56.161Z,101103.41
2022-09-17T06:52:07.643Z,101099.06
2022-09-17T06:56:19.850Z,101107.28
2022-09-17T07:00:31.377Z,101110.88
2022-09-17T07:04:42.838Z,101109.75
2022-09-17T07:08:54.341Z,101105.41
2022-09-17T07:13:05.818Z,101102.38
2022-09-17T07:17:17.366Z,101104.31
2022-09-17T07:21:28.825Z,101110.88
2022-09-17T07:25:40.308Z,101108.94
2022-09-17T07:29:51.764Z,101101.03
2022-09-17T07:34:03.505Z,101096.38
2022-09-17T07:38:14.981Z,101098.44
2022-09-17T07:42:27.394Z,101099.53
2022-09-17T07:46:38.921Z,101095.63
2022-09-17T07:50:50.481Z,101093.09
2022-09-17T07:55:01.987Z,101098.19
2022-09-17T07:59:13.557Z,101097.75
2022-09-17T08:03:25.220Z,101103.88
2022-09-17T08:07:36.831Z,101104.31
2022-09-17T08:11:56.684Z,101096.13
2022-09-17T08:16:13.348Z,101096.75
2022-09-17T08:20:26.154Z,101111.03
2022-09-17T08:24:37.718Z,101103.75
2022-09-17T08:28:51.081Z,101096.22
2022-09-17T08:33:02.528Z,101089.19
2022-09-17T08:37:14.031Z,101097.59
2022-09-17T08:41:49.490Z,101101.06
2022-09-17T08:46:01.086Z,101109.44
2022-09-17T08:50:29.817Z,101108.53
2022-09-17T08:55:34.891Z,101110.53
2022-09-17T08:59:52.188Z,101119.41
2022-09-17T09:04:42.074Z,101110.59
2022-09-17T09:09:04.392Z,101104.75
2022-09-17T09:13:19.381Z,101118.97
2022-09-17T09:17:40.970Z,101105.88
2022-09-17T09:22:12.643Z,101118.59
2022-09-17T09:26:33.392Z,101121.25
2022-09-17T09:30:58.550Z,101126.91
2022-09-17T09:35:23.229Z,101114.59
2022-09-17T09:39:41.332Z,101105.44
2022-09-17T09:44:05.346Z,101107.78
2022-09-17T09:48:33.593Z,101102.09
2022-09-17T09:52:59.540Z,101108.44
2022-09-17T09:57:15.856Z,101098.59
2022-09-17T10:01:29.813Z,101105.53
2022-09-17T10:05:59.348Z,101123.50
2022-09-17T10:10:10.848Z,101120.31
2022-09-17T10:14:26.044Z,101122.41
2022-09-17T10:18:37.547Z,101130.53
2022-09-17T10:22:58.214Z,101133.34
2022-09-17T10:27:17.098Z,101123.84
2022-09-17T10:31:47.168Z,101135.81
2022-09-17T10:36:14.672Z,101125.88
2022-09-17T10:40:29.676Z,101149.59
2022-09-17T10:44:53.424Z,101172.75
2022-09-17T10:49:20.439Z,101148.41
2022-09-17T10:53:37.217Z,101140.75
2022-09-17T10:58:10.120Z,101133.88
2022-09-17T11:02:42.396Z,101123.06
2022-09-17T11:07:13.327Z,101112.97
2022-09-17T11:11:51.640Z,101097.59
2022-09-17T11:16:24.914Z,101101.84
2022-09-17T11:21:02.598Z,101081.78
2022-09-17T11:25:33.308Z,101082.69
2022-09-17T11:30:09.920Z,101081.47
2022-09-17T11:34:28.525Z,101075.88
2022-09-17T11:38:44.957Z,101077.16
2022-09-17T11:43:02.431Z,101060.28
2022-09-17T11:47:20.755Z,101062.81
2022-09-17T11:51:36.865Z,101071.59
2022-09-17T11:55:53.704Z,101069.94
2022-09-17T12:00:20.237Z,101055.06
2022-09-17T12:05:01.314Z,101061.88
2022-09-17T12:09:19.048Z,101062.13
2022-09-17T12:13:39.940Z,101080.88
2022-09-17T12:18:32.924Z,101103.44
2022-09-17T12:22:48.862Z,101092.84
2022-09-17T12:27:38.129Z,101092.81
2022-09-17T12:32:20.719Z,101093.88
2022-09-17T12:36:51.232Z,101098.03
2022-09-17T12:41:10.421Z,101094.22
2022-09-17T12:45:45.362Z,101093.44
2022-09-17T12:50:11.893Z,101110.28
2022-09-17T12:54:45.275Z,101087.06
2022-09-17T12:59:15.938Z,101100.75
2022-09-17T13:03:35.609Z,101091.78
2022-09-17T13:08:08.285Z,101082.50
2022-09-17T13:12:44.882Z,101094.75
2022-09-17T13:17:05.225Z,101081.13
2022-09-17T13:21:40.448Z,101088.50
2022-09-17T13:25:53.105Z,101083.84
2022-09-17T13:30:10.855Z,101093.69
2022-09-17T13:34:31.758Z,101095.69
2022-09-17T13:38:43.942Z,101093.22
2022-09-17T13:43:08.363Z,101097.78
2022-09-17T13:47:34.486Z,101098.72
2022-09-17T13:51:49.211Z,101091.31
2022-09-17T13:56:31.895Z,101089.88
2022-09-17T14:01:05.759Z,101103.63
2022-09-17T14:05:29.850Z,101089.66
2022-09-17T14:10:16.701Z,101114.97
2022-09-17T14:14:28.173Z,101121.34
2022-09-17T14:18:43.322Z,101116.78
2022-09-17T14:23:01.061Z,101111.22
2022-09-17T14:27:36.566Z,101105.63
2022-09-17T14:31:51.615Z,101103.56
2022-09-17T14:36:12.271Z,101098.88
2022-09-17T14:40:24.566Z,101103.50
2022-09-17T14:44:36.621Z,101082.88
2022-09-17T14:48:48.276Z,101091.16
2022-09-17T14:53:08.302Z,101094.50
2022-09-17T14:57:28.813Z,101073.00
2022-09-17T15:01:47.976Z,101096.44
2022-09-17T15:05:59.737Z,101100.88
2022-09-17T15:10:20.311Z,101082.78
2022-09-17T15:14:39.222Z,101091.25
2022-09-17T15:18:54.811Z,101097.38
2022-09-17T15:23:23.689Z,101102.19
2022-09-17T15:27:42.511Z,101100.25
2022-09-17T15:31:54.886Z,101083.38
2022-09-17T15:36:27.510Z,101104.25
2022-09-17T15:40:43.864Z,101103.31
2022-09-17T15:45:39.207Z,101125.00
2022-09-17T15:50:13.654Z,101110.22
2022-09-17T15:54:32.498Z,101103.00
2022-09-17T15:58:47.133Z,101100.75
2022-09-17T16:03:12.308Z,101116.75
2022-09-17T16:07:29.522Z,101112.81
2022-09-17T16:11:43.997Z,101115.69
2022-09-17T16:15:55.886Z,101099.09
2022-09-17T16:20:25.818Z,101118.13
2022-09-17T16:24:37.509Z,101118.97
2022-09-17T16:28:53.735Z,101115.84
2022-09-17T16:33:06.860Z,101111.75
2022-09-17T16:37:20.996Z,101100.56
2022-09-17T16:41:32.646Z,101112.31
2022-09-17T16:45:57.959Z,101107.06
2022-09-17T16:50:14.959Z,101113.13
2022-09-17T16:54:26.557Z,101115.47
2022-09-17T16:58:38.708Z,101133.63
2022-09-17T17:02:56.176Z,101114.44
2022-09-17T17:07:08.027Z,101127.19
2022-09-17T17:11:19.661Z,101124.53
2022-09-17T17:15:31.422Z,101140.00
2022-09-17T17:19:43.077Z,101146.41
2022-09-17T17:23:55.114Z,101138.03
2022-09-17T17:28:06.754Z,101131.31
2022-09-17T17:32:18.385Z,101125.13
2022-09-17T17:36:31.964Z,101133.06
2022-09-17T17:40:44.434Z,101149.44
2022-09-17T17:44:56.137Z,101147.88
2022-09-17T17:49:08.122Z,101138.31
2022-09-17T17:53:19.857Z,101141.78
2022-09-17T17:57:31.516Z,101143.69
2022-09-17T18:01:43.203Z,101132.44
2022-09-17T18:05:58.539Z,101125.53
2022-09-17T18:10:10.242Z,101135.50
2022-09-17T18:14:21.814Z,101151.13
2022-09-17T18:18:37.961Z,101152.56
2022-09-17T18:22:51.407Z,101160.63
2022-09-17T18:27:03.026Z,101150.34
2022-09-17T18:31:24.398Z,101176.84
2022-09-17T18:35:36.787Z,101162.50
2022-09-17T18:40:04.707Z,101181.56
2022-09-17T18:44:18.701Z,101183.28
2022-09-17T18:48:34.298Z,101181.41
2022-09-17T18:52:48.610Z,101187.88
2022-09-17T18:57:00.335Z,101181.63
2022-09-17T19:01:12.793Z,101182.44
2022-09-17T19:05:24.454Z,101195.66
2022-09-17T19:09:36.129Z,101184.47
2022-09-17T19:13:51.240Z,101184.94
2022-09-17T19:18:02.862Z,101194.06
2022-09-17T19:22:14.424Z,101188.69
2022-09-17T19:26:27.621Z,101209.13
2022-09-17T19:30:39.228Z,101206.28
2022-09-17T19:34:50.833Z,101193.88
2022-09-17T19:39:02.499Z,101195.91
2022-09-17T19:43:15.036Z,101194.13
2022-09-17T19:47:26.673Z,101175.38
2022-09-17T19:51:38.513Z,101206.44
2022-09-17T19:55:50.335Z,101201.50
2022-09-17T20:00:02.150Z,101208.59
2022-09-17T20:04:22.072Z,101205.41
2022-09-17T20:08:36.850Z,101212.50
2022-09-17T20:12:50.951Z,101202.69
2022-09-17T20:17:02.517Z,101216.38
2022-09-17T20:21:19.448Z,101211.88
2022-09-17T20:25:31.022Z,101220.78
2022-09-17T20:29:45.725Z,101195.88
2022-09-17T20:34:02.225Z,101197.72
2022-09-17T20:42:45.699Z,101219.41
2022-09-17T20:46:57.393Z,101223.75
2022-09-17T20:51:14.749Z,101212.44
2022-09-17T20:55:29.042Z,101221.50
2022-09-17T20:59:52.218Z,101214.91
2022-09-17T21:04:06.769Z,101221.94
2022-09-17T21:08:18.422Z,101218.25
2022-09-17T21:12:30.111Z,101221.38
2022-09-17T21:16:42.073Z,101208.81
2022-09-17T21:20:54.134Z,101222.09
2022-09-17T21:25:06.629Z,101235.97
2022-09-17T21:29:18.367Z,101228.97
2022-09-17T21:33:29.917Z,101237.50
2022-09-17T21:37:41.448Z,101234.38
2022-09-17T21:41:52.997Z,101219.50
2022-09-17T21:46:13.413Z,101219.59
2022-09-17T21:50:25.073Z,101235.19
2022-09-17T21:54:36.644Z,101231.84
2022-09-17T21:58:52.989Z,101231.66
2022-09-17T22:03:04.976Z,101244.53
2022-09-17T22:07:16.636Z,101227.00
2022-09-17T22:11:31.321Z,101231.00
2022-09-17T22:15:42.946Z,101238.88
2022-09-17T22:19:54.499Z,101236.00
2022-09-17T22:24:07.307Z,101232.69
2022-09-17T22:28:21.363Z,101229.56
2022-09-17T22:32:33.479Z,101231.44
2022-09-17T22:36:45.474Z,101222.75
2022-09-17T22:40:56.991Z,101220.53
2022-09-17T22:45:08.862Z,101212.84
2022-09-17T22:49:20.537Z,101220.53
2022-09-17T22:53:33.142Z,101212.72
2022-09-17T22:57:44.692Z,101210.81
2022-09-17T23:01:56.280Z,101218.81
2022-09-17T23:06:10.755Z,101217.06
2022-09-17T23:10:22.362Z,101215.94
2022-09-17T23:14:33.926Z,101207.47
2022-09-17T23:18:45.507Z,101215.03
2022-09-17T23:22:57.945Z,101216.94
2022-09-17T23:27:09.641Z,101207.06
2022-09-17T23:31:24.516Z,101195.28
2022-09-17T23:35:36.097Z,101203.31
2022-09-17T23:39:47.650Z,101205.34
2022-09-17T23:44:01.449Z,101186.72
2022-09-17T23:48:12.955Z,101197.16
2022-09-17T23:52:24.504Z,101206.22
2022-09-17T23:56:36.120Z,101199.34
